sensor_id;sensor_type;location;lat;lon;timestamp;temperature;humidity
33564;DHT22;19894;48.452;11.494;2023-04-01T00:01:13;18.30;44.40
33564;DHT22;19894;48.452;11.494;2023-04-01T00:03:39;18.30;44.40
33564;DHT22;19894;48.452;11.494;2023-04-01T00:06:05;18.30;44.40
33564;DHT22;19894;48.452;11.494;2023-04-01T00:08:31;18.30;44.40
33564;DHT22;19894;48.452;11.494;2023-04-01T00:10:57;18.30;44.40
33564;DHT22;19894;48.452;11.494;2023-04-01T00:13:25;18.30;44.30
33564;DHT22;19894;48.452;11.494;2023-04-01T00:15:52;18.30;44.30
33564;DHT22;19894;48.452;11.494;2023-04-01T00:18:18;18.30;44.40
33564;DHT22;19894;48.452;11.494;2023-04-01T00:20:48;18.30;44.30
33564;DHT22;19894;48.452;11.494;2023-04-01T00:23:15;18.30;44.30
33564;DHT22;19894;48.452;11.494;2023-04-01T00:25:41;18.30;44.30
33564;DHT22;19894;48.452;11.494;2023-04-01T00:28:07;18.30;44.30
33564;DHT22;19894;48.452;11.494;2023-04-01T00:30:32;18.30;44.30
33564;DHT22;19894;48.452;11.494;2023-04-01T00:32:58;18.30;44.30
33564;DHT22;19894;48.452;11.494;2023-04-01T00:35:23;18.30;44.30
33564;DHT22;19894;48.452;11.494;2023-04-01T00:37:49;18.30;44.30
33564;DHT22;19894;48.452;11.494;2023-04-01T00:40:37;18.30;44.20
33564;DHT22;19894;48.452;11.494;2023-04-01T00:43:05;18.30;44.20
33564;DHT22;19894;48.452;11.494;2023-04-01T00:45:37;18.30;44.30
33564;DHT22;19894;48.452;11.494;2023-04-01T00:48:10;18.30;44.20
33564;DHT22;19894;48.452;11.494;2023-04-01T00:50:37;18.30;44.30
33564;DHT22;19894;48.452;11.494;2023-04-01T00:53:05;18.30;44.30
33564;DHT22;19894;48.452;11.494;2023-04-01T00:55:34;18.30;44.30
33564;DHT22;19894;48.452;11.494;2023-04-01T00:58:03;18.30;44.30
33564;DHT22;19894;48.452;11.494;2023-04-01T01:00:30;18.30;44.30
33564;DHT22;19894;48.452;11.494;2023-04-01T01:02:57;18.30;44.30
33564;DHT22;19894;48.452;11.494;2023-04-01T01:05:31;18.30;44.30
33564;DHT22;19894;48.452;11.494;2023-04-01T01:08:18;18.30;44.30
33564;DHT22;19894;48.452;11.494;2023-04-01T01:10:49;18.30;44.30
33564;DHT22;19894;48.452;11.494;2023-04-01T01:14:19;18.30;44.40
33564;DHT22;19894;48.452;11.494;2023-04-01T01:16:23;18.30;44.30
33564;DHT22;19894;48.452;11.494;2023-04-01T01:18:53;18.30;44.40
33564;DHT22;19894;48.452;11.494;2023-04-01T01:27:16;18.30;44.30
33564;DHT22;19894;48.452;11.494;2023-04-01T01:29:57;18.30;44.30
33564;DHT22;19894;48.452;11.494;2023-04-01T01:38:15;18.30;44.30
33564;DHT22;19894;48.452;11.494;2023-04-01T01:40:45;18.30;44.30
33564;DHT22;19894;48.452;11.494;2023-04-01T01:43:14;18.30;44.30
33564;DHT22;19894;48.452;11.494;2023-04-01T01:45:46;18.30;44.30
33564;DHT22;19894;48.452;11.494;2023-04-01T01:48:14;18.30;44.30
33564;DHT22;19894;48.452;11.494;2023-04-01T01:50:42;18.30;44.30
33564;DHT22;19894;48.452;11.494;2023-04-01T01:53:11;18.30;44.30
33564;DHT22;19894;48.452;11.494;2023-04-01T01:55:47;18.30;44.30
33564;DHT22;19894;48.452;11.494;2023-04-01T02:00:54;18.30;44.20
33564;DHT22;19894;48.452;11.494;2023-04-01T02:03:21;18.30;44.20
33564;DHT22;19894;48.452;11.494;2023-04-01T02:05:50;18.30;44.30
33564;DHT22;19894;48.452;11.494;2023-04-01T02:08:21;18.30;44.30
33564;DHT22;19894;48.452;11.494;2023-04-01T02:11:00;18.30;44.20
33564;DHT22;19894;48.452;11.494;2023-04-01T02:13:33;18.30;44.20
33564;DHT22;19894;48.452;11.494;2023-04-01T02:16:06;18.30;44.30
33564;DHT22;19894;48.452;11.494;2023-04-01T02:18:36;18.30;44.20
33564;DHT22;19894;48.452;11.494;2023-04-01T02:21:04;18.30;44.20
33564;DHT22;19894;48.452;11.494;2023-04-01T02:23:33;18.30;44.20
33564;DHT22;19894;48.452;11.494;2023-04-01T02:26:01;18.30;44.20
33564;DHT22;19894;48.452;11.494;2023-04-01T02:28:28;18.30;44.20
33564;DHT22;19894;48.452;11.494;2023-04-01T02:30:55;18.30;44.20
33564;DHT22;19894;48.452;11.494;2023-04-01T02:33:23;18.30;44.20
33564;DHT22;19894;48.452;11.494;2023-04-01T02:35:49;18.30;44.20
33564;DHT22;19894;48.452;11.494;2023-04-01T02:38:15;18.30;44.10
33564;DHT22;19894;48.452;11.494;2023-04-01T02:40:47;18.30;44.60
33564;DHT22;19894;48.452;11.494;2023-04-01T02:43:13;18.30;44.10
33564;DHT22;19894;48.452;11.494;2023-04-01T02:45:39;18.30;44.10
33564;DHT22;19894;48.452;11.494;2023-04-01T02:48:05;18.30;44.10
33564;DHT22;19894;48.452;11.494;2023-04-01T02:50:30;18.30;44.10
33564;DHT22;19894;48.452;11.494;2023-04-01T02:52:56;18.30;44.10
33564;DHT22;19894;48.452;11.494;2023-04-01T02:55:21;18.30;44.10
33564;DHT22;19894;48.452;11.494;2023-04-01T02:57:47;18.30;44.10
33564;DHT22;19894;48.452;11.494;2023-04-01T03:00:13;18.30;44.10
33564;DHT22;19894;48.452;11.494;2023-04-01T03:02:39;18.30;44.10
33564;DHT22;19894;48.452;11.494;2023-04-01T03:05:05;18.30;44.10
33564;DHT22;19894;48.452;11.494;2023-04-01T03:07:31;18.30;44.10
33564;DHT22;19894;48.452;11.494;2023-04-01T03:09:57;18.30;44.10
33564;DHT22;19894;48.452;11.494;2023-04-01T03:12:22;18.30;44.10
33564;DHT22;19894;48.452;11.494;2023-04-01T03:14:48;18.30;44.10
33564;DHT22;19894;48.452;11.494;2023-04-01T03:17:13;18.30;44.10
33564;DHT22;19894;48.452;11.494;2023-04-01T03:19:39;18.30;44.00
33564;DHT22;19894;48.452;11.494;2023-04-01T03:22:05;18.30;44.00
33564;DHT22;19894;48.452;11.494;2023-04-01T03:24:30;18.30;44.00
33564;DHT22;19894;48.452;11.494;2023-04-01T03:26:56;18.30;44.00
33564;DHT22;19894;48.452;11.494;2023-04-01T03:29:21;18.30;44.00
33564;DHT22;19894;48.452;11.494;2023-04-01T03:31:47;18.30;44.00
33564;DHT22;19894;48.452;11.494;2023-04-01T03:34:12;18.30;44.00
33564;DHT22;19894;48.452;11.494;2023-04-01T03:36:38;18.30;44.00
33564;DHT22;19894;48.452;11.494;2023-04-01T03:39:04;18.30;44.00
33564;DHT22;19894;48.452;11.494;2023-04-01T03:41:31;18.30;44.00
33564;DHT22;19894;48.452;11.494;2023-04-01T03:43:57;18.30;43.90
33564;DHT22;19894;48.452;11.494;2023-04-01T03:46:23;18.30;43.90
33564;DHT22;19894;48.452;11.494;2023-04-01T03:48:48;18.30;43.90
33564;DHT22;19894;48.452;11.494;2023-04-01T03:51:14;18.30;43.90
33564;DHT22;19894;48.452;11.494;2023-04-01T03:53:39;18.30;44.00
33564;DHT22;19894;48.452;11.494;2023-04-01T03:56:06;18.30;44.00
33564;DHT22;19894;48.452;11.494;2023-04-01T03:58:32;18.30;43.90
33564;DHT22;19894;48.452;11.494;2023-04-01T04:00:57;18.30;43.90
33564;DHT22;19894;48.452;11.494;2023-04-01T04:03:23;18.30;43.90
33564;DHT22;19894;48.452;11.494;2023-04-01T04:05:49;18.30;43.90
33564;DHT22;19894;48.452;11.494;2023-04-01T04:08:15;18.30;43.90
33564;DHT22;19894;48.452;11.494;2023-04-01T04:10:41;18.30;43.90
33564;DHT22;19894;48.452;11.494;2023-04-01T04:13:07;18.30;43.90
33564;DHT22;19894;48.452;11.494;2023-04-01T04:15:32;18.30;43.90
33564;DHT22;19894;48.452;11.494;2023-04-01T04:17:58;18.30;43.90
33564;DHT22;19894;48.452;11.494;2023-04-01T04:20:24;18.30;43.80
33564;DHT22;19894;48.452;11.494;2023-04-01T04:22:49;18.30;43.80
33564;DHT22;19894;48.452;11.494;2023-04-01T04:25:15;18.30;43.80
33564;DHT22;19894;48.452;11.494;2023-04-01T04:27:41;18.30;43.80
33564;DHT22;19894;48.452;11.494;2023-04-01T04:30:07;18.30;43.80
33564;DHT22;19894;48.452;11.494;2023-04-01T04:32:33;18.30;43.80
33564;DHT22;19894;48.452;11.494;2023-04-01T04:34:59;18.30;43.80
33564;DHT22;19894;48.452;11.494;2023-04-01T04:37:24;18.30;43.80
33564;DHT22;19894;48.452;11.494;2023-04-01T04:39:51;18.30;43.70
33564;DHT22;19894;48.452;11.494;2023-04-01T04:42:16;18.30;43.70
33564;DHT22;19894;48.452;11.494;2023-04-01T04:44:42;18.30;43.70
33564;DHT22;19894;48.452;11.494;2023-04-01T04:47:08;18.30;43.70
33564;DHT22;19894;48.452;11.494;2023-04-01T04:49:33;18.30;43.70
33564;DHT22;19894;48.452;11.494;2023-04-01T04:51:59;18.30;43.70
33564;DHT22;19894;48.452;11.494;2023-04-01T04:54:25;18.30;43.70
33564;DHT22;19894;48.452;11.494;2023-04-01T04:56:53;18.30;43.70
33564;DHT22;19894;48.452;11.494;2023-04-01T04:59:19;18.20;43.60
33564;DHT22;19894;48.452;11.494;2023-04-01T05:01:45;18.30;43.70
33564;DHT22;19894;48.452;11.494;2023-04-01T05:04:10;18.30;43.70
33564;DHT22;19894;48.452;11.494;2023-04-01T05:06:36;18.30;43.70
33564;DHT22;19894;48.452;11.494;2023-04-01T05:09:02;18.30;43.70
33564;DHT22;19894;48.452;11.494;2023-04-01T05:11:27;18.30;43.70
33564;DHT22;19894;48.452;11.494;2023-04-01T05:13:53;18.30;43.70
33564;DHT22;19894;48.452;11.494;2023-04-01T05:16:20;18.30;43.70
33564;DHT22;19894;48.452;11.494;2023-04-01T05:18:46;18.30;43.70
33564;DHT22;19894;48.452;11.494;2023-04-01T05:21:14;18.30;43.70
33564;DHT22;19894;48.452;11.494;2023-04-01T05:23:40;18.30;43.70
33564;DHT22;19894;48.452;11.494;2023-04-01T05:26:12;18.30;43.70
33564;DHT22;19894;48.452;11.494;2023-04-01T05:28:38;18.30;43.70
33564;DHT22;19894;48.452;11.494;2023-04-01T05:31:04;18.30;43.70
33564;DHT22;19894;48.452;11.494;2023-04-01T05:33:30;18.30;43.70
33564;DHT22;19894;48.452;11.494;2023-04-01T05:35:56;18.30;43.70
33564;DHT22;19894;48.452;11.494;2023-04-01T05:38:30;18.30;43.70
33564;DHT22;19894;48.452;11.494;2023-04-01T05:40:59;18.30;43.70
33564;DHT22;19894;48.452;11.494;2023-04-01T05:43:25;18.30;43.70
33564;DHT22;19894;48.452;11.494;2023-04-01T05:45:51;18.30;43.70
33564;DHT22;19894;48.452;11.494;2023-04-01T05:48:16;18.30;43.70
33564;DHT22;19894;48.452;11.494;2023-04-01T05:50:42;18.30;43.70
33564;DHT22;19894;48.452;11.494;2023-04-01T05:53:07;18.30;43.70
33564;DHT22;19894;48.452;11.494;2023-04-01T05:55:35;18.30;43.60
33564;DHT22;19894;48.452;11.494;2023-04-01T05:58:01;18.30;43.70
33564;DHT22;19894;48.452;11.494;2023-04-01T06:00:26;18.30;43.70
33564;DHT22;19894;48.452;11.494;2023-04-01T06:02:52;18.30;43.70
33564;DHT22;19894;48.452;11.494;2023-04-01T06:05:21;18.30;43.70
33564;DHT22;19894;48.452;11.494;2023-04-01T06:07:47;18.30;43.70
33564;DHT22;19894;48.452;11.494;2023-04-01T06:10:16;18.30;43.70
33564;DHT22;19894;48.452;11.494;2023-04-01T06:12:52;18.30;43.70
33564;DHT22;19894;48.452;11.494;2023-04-01T06:15:41;18.30;43.70
33564;DHT22;19894;48.452;11.494;2023-04-01T06:23:57;18.30;43.70
33564;DHT22;19894;48.452;11.494;2023-04-01T06:26:39;18.30;43.80
33564;DHT22;19894;48.452;11.494;2023-04-01T06:29:23;18.30;43.70
33564;DHT22;19894;48.452;11.494;2023-04-01T06:40:39;18.30;43.70
33564;DHT22;19894;48.452;11.494;2023-04-01T06:53:27;18.30;43.70
33564;DHT22;19894;48.452;11.494;2023-04-01T06:56:04;18.30;43.70
33564;DHT22;19894;48.452;11.494;2023-04-01T06:59:00;18.30;43.70
33564;DHT22;19894;48.452;11.494;2023-04-01T07:01:38;18.30;43.70
33564;DHT22;19894;48.452;11.494;2023-04-01T07:04:11;18.30;43.70
33564;DHT22;19894;48.452;11.494;2023-04-01T07:09:21;18.30;43.80
33564;DHT22;19894;48.452;11.494;2023-04-01T07:11:47;18.30;43.70
33564;DHT22;19894;48.452;11.494;2023-04-01T07:14:17;18.30;43.70
33564;DHT22;19894;48.452;11.494;2023-04-01T07:17:03;18.30;43.80
33564;DHT22;19894;48.452;11.494;2023-04-01T07:19:42;18.30;43.70
33564;DHT22;19894;48.452;11.494;2023-04-01T07:22:34;18.30;43.70
33564;DHT22;19894;48.452;11.494;2023-04-01T07:25:13;18.30;43.70
33564;DHT22;19894;48.452;11.494;2023-04-01T07:27:39;18.30;43.70
33564;DHT22;19894;48.452;11.494;2023-04-01T07:30:14;18.30;43.70
33564;DHT22;19894;48.452;11.494;2023-04-01T07:33:02;18.30;43.70
33564;DHT22;19894;48.452;11.494;2023-04-01T07:40:47;18.30;43.70
33564;DHT22;19894;48.452;11.494;2023-04-01T07:43:38;18.30;43.70
33564;DHT22;19894;48.452;11.494;2023-04-01T07:46:15;18.30;43.70
33564;DHT22;19894;48.452;11.494;2023-04-01T07:59:43;18.30;43.70
33564;DHT22;19894;48.452;11.494;2023-04-01T08:02:25;18.30;43.60
33564;DHT22;19894;48.452;11.494;2023-04-01T08:05:01;18.30;43.60
33564;DHT22;19894;48.452;11.494;2023-04-01T08:07:49;18.30;43.70
33564;DHT22;19894;48.452;11.494;2023-04-01T08:15:44;18.30;43.70
33564;DHT22;19894;48.452;11.494;2023-04-01T08:21:21;18.30;43.60
33564;DHT22;19894;48.452;11.494;2023-04-01T08:23:44;18.30;43.60
33564;DHT22;19894;48.452;11.494;2023-04-01T08:26:27;18.30;43.60
33564;DHT22;19894;48.452;11.494;2023-04-01T08:29:12;18.30;43.60
33564;DHT22;19894;48.452;11.494;2023-04-01T08:34:25;18.30;43.60
33564;DHT22;19894;48.452;11.494;2023-04-01T08:36:57;18.30;43.60
33564;DHT22;19894;48.452;11.494;2023-04-01T08:39:34;18.30;43.60
33564;DHT22;19894;48.452;11.494;2023-04-01T08:42:50;18.30;43.60
33564;DHT22;19894;48.452;11.494;2023-04-01T08:45:09;18.30;43.50
33564;DHT22;19894;48.452;11.494;2023-04-01T08:59:14;18.30;43.60
33564;DHT22;19894;48.452;11.494;2023-04-01T09:07:57;18.30;43.60
33564;DHT22;19894;48.452;11.494;2023-04-01T09:16:31;18.20;43.50
33564;DHT22;19894;48.452;11.494;2023-04-01T09:19:11;18.30;43.60
33564;DHT22;19894;48.452;11.494;2023-04-01T09:22:08;18.30;43.60
33564;DHT22;19894;48.452;11.494;2023-04-01T09:24:43;18.30;43.60
33564;DHT22;19894;48.452;11.494;2023-04-01T09:35:48;18.30;43.60
33564;DHT22;19894;48.452;11.494;2023-04-01T09:43:45;18.30;43.60
33564;DHT22;19894;48.452;11.494;2023-04-01T09:46:18;18.30;43.60
33564;DHT22;19894;48.452;11.494;2023-04-01T09:49:00;18.30;43.50
33564;DHT22;19894;48.452;11.494;2023-04-01T09:58:07;18.30;43.50
33564;DHT22;19894;48.452;11.494;2023-04-01T10:00:55;18.30;43.60
33564;DHT22;19894;48.452;11.494;2023-04-01T10:42:13;18.30;43.60
33564;DHT22;19894;48.452;11.494;2023-04-01T10:45:02;18.30;43.60
33564;DHT22;19894;48.452;11.494;2023-04-01T10:53:27;18.30;43.60
33564;DHT22;19894;48.452;11.494;2023-04-01T11:09:27;18.30;43.70
33564;DHT22;19894;48.452;11.494;2023-04-01T11:21:03;18.30;43.80
33564;DHT22;19894;48.452;11.494;2023-04-01T11:32:24;18.30;43.90
33564;DHT22;19894;48.452;11.494;2023-04-01T11:40:44;18.30;44.00
33564;DHT22;19894;48.452;11.494;2023-04-01T11:43:28;18.30;44.00
33564;DHT22;19894;48.452;11.494;2023-04-01T11:46:10;18.30;44.00
33564;DHT22;19894;48.452;11.494;2023-04-01T11:48:51;18.30;44.00
33564;DHT22;19894;48.452;11.494;2023-04-01T11:51:27;18.30;44.00
33564;DHT22;19894;48.452;11.494;2023-04-01T12:02:18;18.40;44.90
33564;DHT22;19894;48.452;11.494;2023-04-01T12:07:44;18.40;44.60
33564;DHT22;19894;48.452;11.494;2023-04-01T12:10:24;18.40;44.50
33564;DHT22;19894;48.452;11.494;2023-04-01T12:16:02;18.40;44.40
33564;DHT22;19894;48.452;11.494;2023-04-01T12:18:50;18.40;44.50
33564;DHT22;19894;48.452;11.494;2023-04-01T12:24:10;18.40;44.60
33564;DHT22;19894;48.452;11.494;2023-04-01T12:35:22;18.40;44.50
33564;DHT22;19894;48.452;11.494;2023-04-01T12:38:10;18.50;44.50
33564;DHT22;19894;48.452;11.494;2023-04-01T12:49:01;18.50;44.50
33564;DHT22;19894;48.452;11.494;2023-04-01T13:04:56;18.50;44.40
33564;DHT22;19894;48.452;11.494;2023-04-01T13:07:58;18.40;44.40
33564;DHT22;19894;48.452;11.494;2023-04-01T13:10:53;18.40;44.40
33564;DHT22;19894;48.452;11.494;2023-04-01T13:13:45;18.40;44.40
33564;DHT22;19894;48.452;11.494;2023-04-01T13:16:37;18.40;44.40
33564;DHT22;19894;48.452;11.494;2023-04-01T13:19:17;18.40;44.40
33564;DHT22;19894;48.452;11.494;2023-04-01T13:30:00;18.40;44.80
33564;DHT22;19894;48.452;11.494;2023-04-01T13:32:36;18.40;44.80
33564;DHT22;19894;48.452;11.494;2023-04-01T13:35:28;18.40;44.70
33564;DHT22;19894;48.452;11.494;2023-04-01T13:40:46;18.40;45.30
33564;DHT22;19894;48.452;11.494;2023-04-01T13:43:19;18.50;44.70
33564;DHT22;19894;48.452;11.494;2023-04-01T14:05:25;18.50;44.70
33564;DHT22;19894;48.452;11.494;2023-04-01T14:08:20;18.50;44.70
33564;DHT22;19894;48.452;11.494;2023-04-01T14:19:31;18.50;44.70
33564;DHT22;19894;48.452;11.494;2023-04-01T14:22:25;18.40;44.70
33564;DHT22;19894;48.452;11.494;2023-04-01T14:25:38;18.40;44.60
33564;DHT22;19894;48.452;11.494;2023-04-01T14:31:20;18.40;44.70
33564;DHT22;19894;48.452;11.494;2023-04-01T14:36:48;18.40;44.70
33564;DHT22;19894;48.452;11.494;2023-04-01T14:50:44;18.40;44.80
33564;DHT22;19894;48.452;11.494;2023-04-01T14:55:57;18.40;44.70
33564;DHT22;19894;48.452;11.494;2023-04-01T14:58:43;18.40;44.70
33564;DHT22;19894;48.452;11.494;2023-04-01T15:01:40;18.40;44.80
33564;DHT22;19894;48.452;11.494;2023-04-01T15:09:56;18.40;44.80
33564;DHT22;19894;48.452;11.494;2023-04-01T15:12:46;18.40;44.80
33564;DHT22;19894;48.452;11.494;2023-04-01T15:26:33;18.40;44.70
33564;DHT22;19894;48.452;11.494;2023-04-01T15:40:42;18.40;44.70
33564;DHT22;19894;48.452;11.494;2023-04-01T15:48:35;18.30;44.60
33564;DHT22;19894;48.452;11.494;2023-04-01T15:52:00;18.40;44.70
33564;DHT22;19894;48.452;11.494;2023-04-01T15:54:17;18.40;44.60
33564;DHT22;19894;48.452;11.494;2023-04-01T15:57:08;18.40;44.60
33564;DHT22;19894;48.452;11.494;2023-04-01T15:59:53;18.40;44.60
33564;DHT22;19894;48.452;11.494;2023-04-01T16:05:52;18.40;44.60
33564;DHT22;19894;48.452;11.494;2023-04-01T16:11:53;18.30;44.60
33564;DHT22;19894;48.452;11.494;2023-04-01T16:14:44;18.40;44.60
33564;DHT22;19894;48.452;11.494;2023-04-01T16:17:36;18.40;44.70
33564;DHT22;19894;48.452;11.494;2023-04-01T16:23:10;18.40;44.60
33564;DHT22;19894;48.452;11.494;2023-04-01T16:25:41;18.40;44.60
33564;DHT22;19894;48.452;11.494;2023-04-01T16:31:06;18.40;44.70
33564;DHT22;19894;48.452;11.494;2023-04-01T16:36:54;18.40;44.70
33564;DHT22;19894;48.452;11.494;2023-04-01T16:48:13;18.40;44.80
33564;DHT22;19894;48.452;11.494;2023-04-01T16:51:02;18.30;44.70
33564;DHT22;19894;48.452;11.494;2023-04-01T16:56:12;18.40;45.30
33564;DHT22;19894;48.452;11.494;2023-04-01T16:59:02;18.40;44.90
33564;DHT22;19894;48.452;11.494;2023-04-01T17:01:44;18.40;44.90
33564;DHT22;19894;48.452;11.494;2023-04-01T17:15:35;18.40;45.10
33564;DHT22;19894;48.452;11.494;2023-04-01T17:18:33;18.40;45.10
33564;DHT22;19894;48.452;11.494;2023-04-01T17:21:38;18.40;45.10
33564;DHT22;19894;48.452;11.494;2023-04-01T17:24:30;18.40;45.10
33564;DHT22;19894;48.452;11.494;2023-04-01T17:27:06;18.40;45.10
33564;DHT22;19894;48.452;11.494;2023-04-01T17:35:19;18.40;45.10
33564;DHT22;19894;48.452;11.494;2023-04-01T17:40:39;18.40;45.10
33564;DHT22;19894;48.452;11.494;2023-04-01T17:43:47;18.40;45.10
33564;DHT22;19894;48.452;11.494;2023-04-01T17:52:37;18.40;45.10
33564;DHT22;19894;48.452;11.494;2023-04-01T17:55:31;18.40;45.10
33564;DHT22;19894;48.452;11.494;2023-04-01T17:58:02;18.40;45.10
33564;DHT22;19894;48.452;11.494;2023-04-01T18:01:06;18.40;45.20
33564;DHT22;19894;48.452;11.494;2023-04-01T18:06:40;18.40;45.20
33564;DHT22;19894;48.452;11.494;2023-04-01T18:09:39;18.40;45.20
33564;DHT22;19894;48.452;11.494;2023-04-01T18:14:40;18.30;45.10
33564;DHT22;19894;48.452;11.494;2023-04-01T18:20:19;18.40;45.20
33564;DHT22;19894;48.452;11.494;2023-04-01T18:23:19;18.40;45.20
33564;DHT22;19894;48.452;11.494;2023-04-01T18:25:48;18.40;45.20
33564;DHT22;19894;48.452;11.494;2023-04-01T18:31:20;18.40;45.60
33564;DHT22;19894;48.452;11.494;2023-04-01T18:33:57;18.40;45.10
33564;DHT22;19894;48.452;11.494;2023-04-01T18:39:11;18.40;45.00
33564;DHT22;19894;48.452;11.494;2023-04-01T18:42:01;18.40;45.00
33564;DHT22;19894;48.452;11.494;2023-04-01T18:44:44;18.40;45.00
33564;DHT22;19894;48.452;11.494;2023-04-01T18:47:17;18.40;45.00
33564;DHT22;19894;48.452;11.494;2023-04-01T18:52:42;18.40;45.00
33564;DHT22;19894;48.452;11.494;2023-04-01T18:55:28;18.40;44.90
33564;DHT22;19894;48.452;11.494;2023-04-01T19:01:03;18.40;45.00
33564;DHT22;19894;48.452;11.494;2023-04-01T19:06:33;18.40;44.90
33564;DHT22;19894;48.452;11.494;2023-04-01T19:09:19;18.40;44.90
33564;DHT22;19894;48.452;11.494;2023-04-01T19:11:58;18.40;44.90
33564;DHT22;19894;48.452;11.494;2023-04-01T19:14:39;18.40;44.90
33564;DHT22;19894;48.452;11.494;2023-04-01T19:25:53;18.40;44.90
33564;DHT22;19894;48.452;11.494;2023-04-01T19:31:33;18.40;44.80
33564;DHT22;19894;48.452;11.494;2023-04-01T19:37:08;18.40;44.80
33564;DHT22;19894;48.452;11.494;2023-04-01T19:39:47;18.40;44.80
33564;DHT22;19894;48.452;11.494;2023-04-01T19:42:30;18.40;44.80
33564;DHT22;19894;48.452;11.494;2023-04-01T19:54:14;18.40;44.80
33564;DHT22;19894;48.452;11.494;2023-04-01T19:57:00;18.40;44.80
33564;DHT22;19894;48.452;11.494;2023-04-01T19:59:37;18.40;44.70
33564;DHT22;19894;48.452;11.494;2023-04-01T20:04:55;18.40;44.70
33564;DHT22;19894;48.452;11.494;2023-04-01T20:07:37;18.40;44.80
33564;DHT22;19894;48.452;11.494;2023-04-01T20:15:40;18.40;44.80
33564;DHT22;19894;48.452;11.494;2023-04-01T20:18:41;18.40;44.80
33564;DHT22;19894;48.452;11.494;2023-04-01T20:26:36;18.40;44.80
33564;DHT22;19894;48.452;11.494;2023-04-01T20:32:37;18.40;44.80
33564;DHT22;19894;48.452;11.494;2023-04-01T20:35:14;18.40;44.80
33564;DHT22;19894;48.452;11.494;2023-04-01T20:40:28;18.40;44.80
33564;DHT22;19894;48.452;11.494;2023-04-01T20:51:22;18.40;44.70
33564;DHT22;19894;48.452;11.494;2023-04-01T20:54:30;18.40;44.80
33564;DHT22;19894;48.452;11.494;2023-04-01T20:59:41;18.40;44.70
33564;DHT22;19894;48.452;11.494;2023-04-01T21:07:52;18.40;44.60
33564;DHT22;19894;48.452;11.494;2023-04-01T21:27:10;18.40;44.70
33564;DHT22;19894;48.452;11.494;2023-04-01T21:29:51;18.40;44.60
33564;DHT22;19894;48.452;11.494;2023-04-01T21:32:31;18.40;44.60
33564;DHT22;19894;48.452;11.494;2023-04-01T21:43:13;18.40;44.60
33564;DHT22;19894;48.452;11.494;2023-04-01T21:46:07;18.40;44.60
33564;DHT22;19894;48.452;11.494;2023-04-01T21:54:21;18.30;44.50
33564;DHT22;19894;48.452;11.494;2023-04-01T22:00:24;18.40;44.50
33564;DHT22;19894;48.452;11.494;2023-04-01T22:14:09;18.40;44.50
33564;DHT22;19894;48.452;11.494;2023-04-01T22:16:54;18.40;44.50
33564;DHT22;19894;48.452;11.494;2023-04-01T22:22:08;18.40;44.50
33564;DHT22;19894;48.452;11.494;2023-04-01T22:24:55;18.40;44.50
33564;DHT22;19894;48.452;11.494;2023-04-01T22:27:39;18.40;44.50
33564;DHT22;19894;48.452;11.494;2023-04-01T22:30:16;18.40;44.40
33564;DHT22;19894;48.452;11.494;2023-04-01T22:32:47;18.40;44.40
33564;DHT22;19894;48.452;11.494;2023-04-01T22:35:44;18.40;44.40
33564;DHT22;19894;48.452;11.494;2023-04-01T22:38:17;18.40;44.40
33564;DHT22;19894;48.452;11.494;2023-04-01T22:43:44;18.40;44.40
33564;DHT22;19894;48.452;11.494;2023-04-01T22:46:22;18.40;44.40
33564;DHT22;19894;48.452;11.494;2023-04-01T22:51:45;18.40;44.40
33564;DHT22;19894;48.452;11.494;2023-04-01T22:54:32;18.40;44.40
33564;DHT22;19894;48.452;11.494;2023-04-01T22:59:57;18.40;44.40
33564;DHT22;19894;48.452;11.494;2023-04-01T23:02:31;18.40;44.30
33564;DHT22;19894;48.452;11.494;2023-04-01T23:05:00;18.40;44.30
33564;DHT22;19894;48.452;11.494;2023-04-01T23:07:38;18.40;44.30
33564;DHT22;19894;48.452;11.494;2023-04-01T23:10:35;18.40;44.30
33564;DHT22;19894;48.452;11.494;2023-04-01T23:13:13;18.40;44.30
33564;DHT22;19894;48.452;11.494;2023-04-01T23:15:40;18.40;44.30
33564;DHT22;19894;48.452;11.494;2023-04-01T23:21:11;18.40;44.30
33564;DHT22;19894;48.452;11.494;2023-04-01T23:26:19;18.40;44.30
33564;DHT22;19894;48.452;11.494;2023-04-01T23:28:56;18.40;44.90
33564;DHT22;19894;48.452;11.494;2023-04-01T23:31:40;18.40;44.30
33564;DHT22;19894;48.452;11.494;2023-04-01T23:34:32;18.30;44.30
33564;DHT22;19894;48.452;11.494;2023-04-01T23:37:03;18.40;44.40
33564;DHT22;19894;48.452;11.494;2023-04-01T23:39:36;18.40;44.30
33564;DHT22;19894;48.452;11.494;2023-04-01T23:42:05;18.40;44.30
33564;DHT22;19894;48.452;11.494;2023-04-01T23:44:33;18.40;44.30
33564;DHT22;19894;48.452;11.494;2023-04-01T23:47:00;18.40;44.30
33564;DHT22;19894;48.452;11.494;2023-04-01T23:49:34;18.40;44.30
33564;DHT22;19894;48.452;11.494;2023-04-01T23:57:19;18.30;44.20
